Capt. T Le — WDC9568 — position and weather

sailwx.info

Track history (hours):
 
Tides and Currents Weather Stations Pressure Air Temp Water Temp Dewpoint Dewpoint Depression Visibility Wind Speed Wind Dir Waves Ship Positions

Capt. T Le

Owner: SO CAL SHIP SERVICES, INC, TERMINAL ISLAND, CA. More information available from US FCC via Universal Licensing System and Coast Guard Vessel Documentation Center.

Last reported at 2018-Jul-17 12:58 UTC. Time now 2018-Jul-17 13:22 UTC.
Position N 34°09' W 119°12'.

Length 30 m; draft 2 m.

Type: Ship (hazmat cat B). MMSI: 367104030.

Date/timePositionNaut miles runAvg speedWind from/ knotsBaromVisibWave heightAir tempDewpointWater temp
2018-Jul-17 12:58N 34°09' W 119°12'0 0.0
2018-Jul-17 12:30N 34°09' W 119°12'0 0.0
2018-Jul-17 12:00N 34°09' W 119°12'0 0.0
2018-Jul-17 11:30N 34°09' W 119°12'0 0.0
2018-Jul-17 11:00N 34°09' W 119°12'0 0.0
2018-Jul-17 10:30N 34°09' W 119°12'0 0.0
2018-Jul-17 10:00N 34°09' W 119°12'0 0.0
2018-Jul-17 09:30N 34°09' W 119°12'0 0.0
2018-Jul-17 09:00N 34°09' W 119°12'0 0.0
2018-Jul-17 08:30N 34°09' W 119°12'0 0.0
2018-Jul-17 08:00N 34°09' W 119°12'0 0.0
2018-Jul-17 07:30N 34°09' W 119°12'0 0.0
2018-Jul-17 06:58N 34°09' W 119°12'0 0.0
2018-Jul-17 06:30N 34°09' W 119°12'2 3.9
2018-Jul-17 06:00N 34°09' W 119°15'815.6
2018-Jul-17 05:30N 34°11' W 119°24'4 7.6
2018-Jul-17 05:00N 34°10' W 119°19'611.6
2018-Jul-17 04:30N 34°09' W 119°12'0 0.0
2018-Jul-17 04:00N 34°09' W 119°12'0 0.0
2018-Jul-17 03:30N 34°09' W 119°12'0 0.0
2018-Jul-17 03:00N 34°09' W 119°12'0 0.0
2018-Jul-17 02:30N 34°09' W 119°12'0 0.0
2018-Jul-17 02:00N 34°09' W 119°12'0 0.0
2018-Jul-17 01:30N 34°09' W 119°12'0 0.0
2018-Jul-17 00:59N 34°09' W 119°12'0 0.0
2018-Jul-17 00:29N 34°09' W 119°12'0 0.0
2018-Jul-16 23:30N 34°09' W 119°12'5 9.5
2018-Jul-16 23:00N 34°08' W 119°18'714.0
2018-Jul-16 22:30N 34°11' W 119°25'611.6
2018-Jul-16 22:00N 34°10' W 119°18'510.7
2018-Jul-16 21:31N 34°09' W 119°12'0 0.0
2018-Jul-16 21:00N 34°09' W 119°12'0 0.0
2018-Jul-16 20:30N 34°09' W 119°12'0 0.0
2018-Jul-16 19:58N 34°09' W 119°12'0 0.8
2018-Jul-16 19:31N 34°09' W 119°13'714.3
2018-Jul-16 18:59N 34°10' W 119°21'1 1.9
2018-Jul-16 18:30N 34°10' W 119°22'510.7
2018-Jul-16 18:00N 34°07' W 119°17'4 8.3
2018-Jul-16 17:30N 34°09' W 119°12'1 2.1
2018-Jul-16 17:00N 34°08' W 119°13'3 6.3
2018-Jul-16 16:30N 34°07' W 119°17'714.0
2018-Jul-16 16:01N 34°10' W 119°24'5 9.8
2018-Jul-16 15:30N 34°09' W 119°18'5 9.5
2018-Jul-16 15:00N 34°11' W 119°24'2 4.7
2018-Jul-16 14:30N 34°09' W 119°22'713.3
2018-Jul-16 14:00N 34°08' W 119°13'1 2.5
2018-Jul-16 13:29N 34°09' W 119°12'0 0.0
2018-Jul-16 13:00N 34°09' W 119°12'0 0.0
2018-Jul-16 12:28N 34°09' W 119°12'0 0.0
2018-Jul-16 12:00N 34°09' W 119°12'0 0.0
2018-Jul-16 11:30N 34°09' W 119°12'0 0.0
2018-Jul-16 11:00N 34°09' W 119°12'0 0.0
2018-Jul-16 10:31N 34°09' W 119°12'0 0.0
2018-Jul-16 10:00N 34°09' W 119°12'0 0.0
2018-Jul-16 09:30N 34°09' W 119°12'0 0.0
2018-Jul-16 09:00N 34°09' W 119°12'0 0.0
2018-Jul-16 08:30N 34°09' W 119°12'0 0.0
2018-Jul-16 08:00N 34°09' W 119°12'0 0.0
2018-Jul-16 07:30N 34°09' W 119°12'0 0.0
2018-Jul-16 07:00N 34°09' W 119°12'0 0.0
2018-Jul-16 06:30N 34°09' W 119°12'0 0.0
2018-Jul-16 05:56N 34°09' W 119°12'0 0.0
2018-Jul-16 05:29N 34°09' W 119°12'0 0.0
2018-Jul-16 05:00N 34°09' W 119°12'0 0.0
2018-Jul-16 04:28N 34°09' W 119°12'0 0.0
2018-Jul-16 03:59N 34°09' W 119°12'0 0.0
2018-Jul-16 03:29N 34°09' W 119°12'0 0.0
2018-Jul-16 02:54N 34°09' W 119°12'0 0.0
2018-Jul-16 02:30N 34°09' W 119°12'0 0.0
2018-Jul-16 02:00N 34°09' W 119°12'0 0.0
2018-Jul-16 01:30N 34°09' W 119°12'0 0.0
2018-Jul-16 00:58N 34°09' W 119°12'0 0.0
2018-Jul-16 00:30N 34°09' W 119°12'0 0.9
2018-Jul-15 23:59N 34°09' W 119°13'611.2
2018-Jul-15 23:29N 34°10' W 119°19'3 6.5
2018-Jul-15 23:00N 34°10' W 119°23'612.1
2018-Jul-15 22:29N 34°07' W 119°17'4 8.3
2018-Jul-15 22:00N 34°09' W 119°12'0 0.5
2018-Jul-15 21:30N 34°09' W 119°12'0 0.0
2018-Jul-15 20:58N 34°09' W 119°12'0 0.0
2018-Jul-15 20:30N 34°09' W 119°12'0 0.1
2018-Jul-15 19:44N 34°09' W 119°12'0 0.2
2018-Jul-15 19:30N 34°09' W 119°12'0 0.0
2018-Jul-15 19:00N 34°09' W 119°12'0 0.0
2018-Jul-15 18:28N 34°09' W 119°12'0 0.0
2018-Jul-15 18:00N 34°09' W 119°12'0 0.0
2018-Jul-15 17:30N 34°09' W 119°12'0 0.0
2018-Jul-15 17:00N 34°09' W 119°12'0 0.0
2018-Jul-15 16:30N 34°09' W 119°12'0 0.6
2018-Jul-15 16:01N 34°09' W 119°12'4 7.7
2018-Jul-15 15:30N 34°07' W 119°17'5 9.4
2018-Jul-15 15:00N 34°12' W 119°17'713.7
2018-Jul-15 14:30N 34°11' W 119°25'714.4
2018-Jul-15 14:00N 34°09' W 119°17'4 7.9
2018-Jul-15 13:30N 34°09' W 119°12'0 0.0
2018-Jul-15 13:00N 34°09' W 119°12'0 0.0
2018-Jul-15 12:30N 34°09' W 119°12'0 0.0
2018-Jul-15 11:58N 34°09' W 119°12'0 0.0
2018-Jul-15 11:30N 34°09' W 119°12'0 0.0
2018-Jul-15 10:59N 34°09' W 119°12'0 0.0
2018-Jul-15 10:24N 34°09' W 119°12'0 0.0
2018-Jul-15 10:00N 34°09' W 119°12'0 0.0
2018-Jul-15 09:28N 34°09' W 119°12'0 0.0
2018-Jul-15 09:00N 34°09' W 119°12'0 0.0
2018-Jul-15 08:30N 34°09' W 119°12'0 0.0
2018-Jul-15 08:00N 34°09' W 119°12'0 0.0
2018-Jul-15 07:30N 34°09' W 119°12'0 0.0
2018-Jul-15 07:00N 34°09' W 119°12'0 0.0
2018-Jul-15 06:30N 34°09' W 119°12'0 0.0
2018-Jul-15 06:00N 34°09' W 119°12'0 0.0
2018-Jul-15 05:30N 34°09' W 119°12'0 0.0
2018-Jul-15 04:58N 34°09' W 119°12'0 0.0
2018-Jul-15 04:28N 34°09' W 119°12'0 0.0
2018-Jul-15 04:00N 34°09' W 119°12'0 0.0
2018-Jul-15 03:28N 34°09' W 119°12'0 0.0
2018-Jul-15 02:59N 34°09' W 119°12'0 0.0
2018-Jul-15 02:30N 34°09' W 119°12'0 0.0
2018-Jul-15 01:59N 34°09' W 119°12'0 0.0
2018-Jul-15 01:30N 34°09' W 119°12'0 0.0
2018-Jul-15 01:00N 34°09' W 119°12'0 0.0
2018-Jul-15 00:29N 34°09' W 119°12'0 0.0
2018-Jul-14 23:59N 34°09' W 119°12'0 0.0
2018-Jul-14 23:30N 34°09' W 119°12'0 0.0
2018-Jul-14 23:00N 34°09' W 119°12'0 0.0
2018-Jul-14 22:29N 34°09' W 119°12'0 0.0
2018-Jul-14 22:00N 34°09' W 119°12'0 0.0
2018-Jul-14 21:30N 34°09' W 119°12'0 0.0
2018-Jul-14 21:00N 34°09' W 119°12'0 0.0
2018-Jul-14 20:30N 34°09' W 119°12'0 0.0
2018-Jul-14 20:00N 34°09' W 119°12'0 0.0
2018-Jul-14 19:29N 34°09' W 119°12'0 0.0
2018-Jul-14 18:59N 34°09' W 119°12'0 0.0
2018-Jul-14 18:29N 34°09' W 119°12'0 0.0
2018-Jul-14 17:59N 34°09' W 119°12'0 0.0
2018-Jul-14 17:30N 34°09' W 119°12'0 0.4
2018-Jul-14 16:59N 34°09' W 119°12'0 0.3
2018-Jul-14 16:24N 34°09' W 119°12'0 0.0
2018-Jul-14 16:00N 34°09' W 119°12'0 0.0
2018-Jul-14 15:27N 34°09' W 119°12'2 4.4
2018-Jul-14 15:00N 34°09' W 119°15'3 3.3
2018-Jul-14 14:00N 34°09' W 119°18'510.7
2018-Jul-14 13:30N 34°09' W 119°12'0 0.0
2018-Jul-14 13:00N 34°09' W 119°12'0 0.0
2018-Jul-14 12:30N 34°09' W 119°12'0 0.0
2018-Jul-14 12:00N 34°09' W 119°12'0 0.0
2018-Jul-14 11:29N 34°09' W 119°12'0 0.0
2018-Jul-14 10:58N 34°09' W 119°12'0 0.0
2018-Jul-14 10:28N 34°09' W 119°12'0 0.0
2018-Jul-14 10:00N 34°09' W 119°12'0 0.0
2018-Jul-14 09:26N 34°09' W 119°12'0 0.0
2018-Jul-14 08:59N 34°09' W 119°12'0 0.0
2018-Jul-14 08:30N 34°09' W 119°12'0 0.0
2018-Jul-14 08:00N 34°09' W 119°12'0 0.0
2018-Jul-14 07:30N 34°09' W 119°12'0 0.0
2018-Jul-14 07:00N 34°09' W 119°12'0 0.0
2018-Jul-14 06:30N 34°09' W 119°12'0 0.0
2018-Jul-14 06:00N 34°09' W 119°12'0 0.0
2018-Jul-14 05:30N 34°09' W 119°12'0 0.0
2018-Jul-14 05:00N 34°09' W 119°12'0 0.0
2018-Jul-14 04:30N 34°09' W 119°12'0 0.0
2018-Jul-14 03:58N 34°09' W 119°12'0 0.0
2018-Jul-14 03:29N 34°09' W 119°12'0 0.0
2018-Jul-14 03:00N 34°09' W 119°12'0 0.0
2018-Jul-14 02:27N 34°09' W 119°12'0 0.0
2018-Jul-14 02:00N 34°09' W 119°12'0 0.0
2018-Jul-14 01:30N 34°09' W 119°12'0 0.0
2018-Jul-14 01:00N 34°09' W 119°12'0 0.0
2018-Jul-14 00:28N 34°09' W 119°12'0 0.0
2018-Jul-14 00:00N 34°09' W 119°12'0 0.0
2018-Jul-13 23:30N 34°09' W 119°12'5 9.0
2018-Jul-13 23:00N 34°07' W 119°17'715.3
2018-Jul-13 22:31N 34°11' W 119°25'713.8
2018-Jul-13 22:00N 34°09' W 119°17'4 7.4
2018-Jul-13 21:28N 34°09' W 119°12'0 0.0
2018-Jul-13 20:58N 34°09' W 119°12'0 0.0
2018-Jul-13 20:29N 34°09' W 119°12'0 0.0
2018-Jul-13 20:00N 34°09' W 119°12'0 0.0
2018-Jul-13 19:30N 34°09' W 119°12'0 0.0
2018-Jul-13 18:59N 34°09' W 119°12'4 8.2
2018-Jul-13 18:30N 34°07' W 119°16'4 7.8
2018-Jul-13 18:00N 34°09' W 119°12'0 0.1
2018-Jul-13 17:30N 34°09' W 119°12'0 0.0
2018-Jul-13 17:00N 34°09' W 119°12'0 0.0
2018-Jul-13 16:31N 34°09' W 119°12'1 1.7
2018-Jul-13 16:00N 34°08' W 119°13'612.0
2018-Jul-13 15:29N 34°09' W 119°21'4 8.7
2018-Jul-13 15:00N 34°11' W 119°25'9 8.9
2018-Jul-13 14:00N 34°07' W 119°15'3 5.8
2018-Jul-13 13:30N 34°09' W 119°12'0 0.0
2018-Jul-13 13:00N 34°09' W 119°12'0 0.0
2018-Jul-13 12:30N 34°09' W 119°12'0 0.0
2018-Jul-13 12:00N 34°09' W 119°12'0 0.0
2018-Jul-13 11:30N 34°09' W 119°12'0 0.0
2018-Jul-13 11:00N 34°09' W 119°12'0 0.0
2018-Jul-13 10:30N 34°09' W 119°12'0 0.0
2018-Jul-13 10:00N 34°09' W 119°12'0 0.0
2018-Jul-13 09:29N 34°09' W 119°12'0 0.0
2018-Jul-13 08:59N 34°09' W 119°12'0 0.0
2018-Jul-13 08:30N 34°09' W 119°12'0 0.0
2018-Jul-13 07:56N 34°09' W 119°12'0 0.0
2018-Jul-13 07:30N 34°09' W 119°12'0 0.0
2018-Jul-13 06:59N 34°09' W 119°12'0 0.0
2018-Jul-13 06:30N 34°09' W 119°12'0 0.0
2018-Jul-13 05:58N 34°09' W 119°12'0 0.0
2018-Jul-13 05:28N 34°09' W 119°12'0 0.0
2018-Jul-13 05:00N 34°09' W 119°12'0 0.0
2018-Jul-13 04:30N 34°09' W 119°12'0 0.0
2018-Jul-13 04:00N 34°09' W 119°12'0 0.0
2018-Jul-13 03:30N 34°09' W 119°12'0 0.0
2018-Jul-13 03:00N 34°09' W 119°12'1 1.5
2018-Jul-13 02:30N 34°09' W 119°13'612.1
2018-Jul-13 02:00N 34°10' W 119°20'1 2.9
2018-Jul-13 01:30N 34°10' W 119°22'815.5
2018-Jul-13 01:00N 34°09' W 119°13'0 1.0
2018-Jul-13 00:30N 34°09' W 119°12'2 4.9
2018-Jul-13 00:00N 34°08' W 119°15'2 4.9
2018-Jul-12 23:30N 34°09' W 119°12'611.0
2018-Jul-12 23:00N 34°08' W 119°19'611.9
2018-Jul-12 22:30N 34°11' W 119°25'611.6
2018-Jul-12 22:01N 34°10' W 119°18'5 9.9
2018-Jul-12 21:30N 34°09' W 119°12'4 7.3
2018-Jul-12 21:00N 34°07' W 119°16'4 7.8
2018-Jul-12 20:31N 34°09' W 119°12'0 0.0
2018-Jul-12 20:01N 34°09' W 119°12'0 0.0
2018-Jul-12 19:30N 34°09' W 119°12'0 0.0
2018-Jul-12 19:00N 34°09' W 119°12'1 2.0
2018-Jul-12 18:29N 34°08' W 119°13'511.0
2018-Jul-12 18:00N 34°10' W 119°19'510.1
2018-Jul-12 17:30N 34°11' W 119°25'0 0.7
2018-Jul-12 17:00N 34°11' W 119°25'715.0
2018-Jul-12 16:30N 34°09' W 119°16'3 6.2
2018-Jul-12 15:59N 34°09' W 119°12'4 7.8
2018-Jul-12 15:29N 34°09' W 119°17'713.8
2018-Jul-12 15:00N 34°11' W 119°25'2 3.2
2018-Jul-12 14:30N 34°10' W 119°23'613.2
2018-Jul-12 14:00N 34°07' W 119°16'4 7.1
2018-Jul-12 13:30N 34°09' W 119°12'0 0.0
2018-Jul-12 13:00N 34°09' W 119°12'0 0.0
2018-Jul-12 12:30N 34°09' W 119°12'3 5.8
2018-Jul-12 12:00N 34°08' W 119°15'3 5.5
2018-Jul-12 11:30N 34°09' W 119°12'0 0.0
2018-Jul-12 10:59N 34°09' W 119°12'0 0.0
2018-Jul-12 10:30N 34°09' W 119°12'0 0.0
2018-Jul-12 10:00N 34°09' W 119°12'0 0.0
2018-Jul-12 09:27N 34°09' W 119°12'0 0.0
2018-Jul-12 09:00N 34°09' W 119°12'0 0.0
2018-Jul-12 08:30N 34°09' W 119°12'0 0.0
2018-Jul-12 08:00N 34°09' W 119°12'0 0.0
2018-Jul-12 07:30N 34°09' W 119°12'0 0.0
2018-Jul-12 06:57N 34°09' W 119°12'0 0.0
2018-Jul-12 06:30N 34°09' W 119°12'0 0.0
2018-Jul-12 05:59N 34°09' W 119°12'0 0.0
2018-Jul-12 05:30N 34°09' W 119°12'0 0.0
2018-Jul-12 05:00N 34°09' W 119°12'0 0.0
2018-Jul-12 04:28N 34°09' W 119°12'0 0.0
2018-Jul-12 04:01N 34°09' W 119°12'0 0.0
2018-Jul-12 03:31N 34°09' W 119°12'0 0.0
2018-Jul-12 02:59N 34°09' W 119°12'1 2.9
2018-Jul-12 02:29N 34°09' W 119°14'815.9
2018-Jul-12 02:00N 34°10' W 119°23'1 2.7
2018-Jul-12 01:30N 34°10' W 119°21'814.8
2018-Jul-12 01:00N 34°09' W 119°12'0 0.1
2018-Jul-12 00:30N 34°09' W 119°12'3 6.4
2018-Jul-12 00:00N 34°07' W 119°15'3 6.4
2018-Jul-11 23:30N 34°09' W 119°12'5 9.6
2018-Jul-11 23:00N 34°08' W 119°18'713.8
2018-Jul-11 22:30N 34°11' W 119°25'0 0.2
2018-Jul-11 22:00N 34°11' W 119°25'0 0.0
2018-Jul-11 21:30N 34°11' W 119°25'0 0.0
2018-Jul-11 21:00N 34°11' W 119°25'2 3.3
2018-Jul-11 20:30N 34°11' W 119°23'815.2
2018-Jul-11 20:00N 34°09' W 119°14'2 3.9
2018-Jul-11 19:30N 34°09' W 119°17'714.5
2018-Jul-11 19:00N 34°11' W 119°25'713.6
2018-Jul-11 18:29N 34°07' W 119°18'510.5
2018-Jul-11 18:00N 34°09' W 119°12'0 0.3
2018-Jul-11 17:30N 34°09' W 119°12'611.3
2018-Jul-11 17:00N 34°08' W 119°19'610.8
2018-Jul-11 16:28N 34°11' W 119°25'0 0.0
2018-Jul-11 16:00N 34°11' W 119°25'0 0.0
2018-Jul-11 15:30N 34°11' W 119°25'0 0.3
2018-Jul-11 15:00N 34°11' W 119°25'1 2.8
2018-Jul-11 14:31N 34°10' W 119°24'714.1
2018-Jul-11 14:00N 34°07' W 119°16'4 6.7
2018-Jul-11 13:29N 34°09' W 119°12'0 0.0
2018-Jul-11 13:01N 34°09' W 119°12'0 0.0
2018-Jul-11 12:29N 34°09' W 119°12'4 8.6
2018-Jul-11 12:00N 34°07' W 119°17'4 8.6
2018-Jul-11 11:30N 34°09' W 119°12'0 0.0
2018-Jul-11 11:00N 34°09' W 119°12'0 0.0
2018-Jul-11 10:27N 34°09' W 119°12'0 0.0
2018-Jul-11 10:00N 34°09' W 119°12'0 0.0
2018-Jul-11 09:29N 34°09' W 119°12'0 0.0
2018-Jul-11 09:00N 34°09' W 119°12'0 0.0
2018-Jul-11 08:30N 34°09' W 119°12'0 0.0
2018-Jul-11 07:58N 34°09' W 119°12'0 0.0
2018-Jul-11 07:30N 34°09' W 119°12'0 0.0
2018-Jul-11 07:00N 34°09' W 119°12'0 0.0
2018-Jul-11 06:27N 34°09' W 119°12'0 0.0
2018-Jul-11 06:00N 34°09' W 119°12'0 0.0
2018-Jul-11 05:30N 34°09' W 119°12'0 0.0
2018-Jul-11 04:59N 34°09' W 119°12'0 0.0
2018-Jul-11 04:30N 34°09' W 119°12'0 0.0
2018-Jul-11 03:58N 34°09' W 119°12'0 0.0
2018-Jul-11 03:26N 34°09' W 119°12'0 0.0
2018-Jul-11 03:00N 34°09' W 119°12'4 8.1
2018-Jul-11 02:30N 34°07' W 119°17'1 1.2
2018-Jul-11 02:00N 34°08' W 119°17'0 0.1
2018-Jul-11 01:30N 34°08' W 119°17'4 8.0
2018-Jul-11 01:00N 34°09' W 119°12'0 0.6
2018-Jul-11 00:28N 34°09' W 119°12'4 8.2
2018-Jul-11 00:00N 34°07' W 119°16'4 7.3
2018-Jul-10 23:30N 34°09' W 119°12'510.4
2018-Jul-10 23:00N 34°08' W 119°18'612.0
2018-Jul-10 22:29N 34°11' W 119°25'0 0.2
2018-Jul-10 21:55N 34°11' W 119°25'0 0.0
2018-Jul-10 21:29N 34°11' W 119°25'0 0.0
2018-Jul-10 21:00N 34°11' W 119°25'0 0.0
2018-Jul-10 20:30N 34°11' W 119°25'0 0.0
2018-Jul-10 20:00N 34°11' W 119°25'0 0.0
2018-Jul-10 19:30N 34°11' W 119°25'1 1.1
2018-Jul-10 19:00N 34°11' W 119°25'815.5
2018-Jul-10 18:30N 34°09' W 119°15'1 2.9
2018-Jul-10 18:00N 34°08' W 119°15'2 4.7
2018-Jul-10 17:30N 34°09' W 119°13'1 1.0
2018-Jul-10 17:00N 34°09' W 119°12'0 0.6
2018-Jul-10 16:30N 34°09' W 119°12'4 9.0
2018-Jul-10 16:00N 34°08' W 119°18'3 5.4
2018-Jul-10 15:30N 34°09' W 119°21'4 8.0
2018-Jul-10 15:01N 34°11' W 119°25'1 2.1
2018-Jul-10 14:31N 34°11' W 119°24'714.0
2018-Jul-10 14:00N 34°07' W 119°17'4 8.2
2018-Jul-10 13:31N 34°09' W 119°12'0 0.0
2018-Jul-10 13:00N 34°09' W 119°12'0 0.0
2018-Jul-10 12:30N 34°09' W 119°12'4 7.2
2018-Jul-10 12:00N 34°08' W 119°16'4 7.1
2018-Jul-10 11:30N 34°09' W 119°12'0 0.0
2018-Jul-10 11:00N 34°09' W 119°12'0 0.0
2018-Jul-10 10:30N 34°09' W 119°12'0 0.0
2018-Jul-10 10:00N 34°09' W 119°12'0 0.0
2018-Jul-10 09:30N 34°09' W 119°12'0 0.0
2018-Jul-10 09:00N 34°09' W 119°12'0 0.0
2018-Jul-10 08:30N 34°09' W 119°12'0 0.0
2018-Jul-10 07:59N 34°09' W 119°12'0 0.0
2018-Jul-10 07:29N 34°09' W 119°12'0 0.0
2018-Jul-10 07:00N 34°09' W 119°12'0 0.0
2018-Jul-10 06:30N 34°09' W 119°12'0 0.0
2018-Jul-10 06:00N 34°09' W 119°12'0 0.0
2018-Jul-10 05:30N 34°09' W 119°12'0 0.0
2018-Jul-10 05:01N 34°09' W 119°12'0 0.0
2018-Jul-10 04:30N 34°09' W 119°12'0 0.0
2018-Jul-10 03:58N 34°09' W 119°12'0 0.0
2018-Jul-10 03:30N 34°09' W 119°12'2 3.9
2018-Jul-10 03:00N 34°09' W 119°14'714.0
2018-Jul-10 02:30N 34°10' W 119°23'1 2.8
2018-Jul-10 02:01N 34°11' W 119°24'815.2
2018-Jul-10 01:30N 34°08' W 119°15'3 5.0
2018-Jul-10 00:58N 34°09' W 119°12'0 0.1
2018-Jul-10 00:30N 34°09' W 119°12'0 0.0
2018-Jul-10 00:00N 34°09' W 119°12'0 0.0
2018-Jul-09 23:30N 34°09' W 119°12'2 4.9
2018-Jul-09 23:01N 34°09' W 119°15'815.8
2018-Jul-09 22:30N 34°11' W 119°24'510.6
2018-Jul-09 22:00N 34°08' W 119°19'510.4
2018-Jul-09 21:30N 34°09' W 119°13'0 0.8
2018-Jul-09 21:00N 34°09' W 119°12'0 0.0
2018-Jul-09 20:30N 34°09' W 119°12'0 0.0
2018-Jul-09 19:58N 34°09' W 119°12'0 0.0
2018-Jul-09 19:30N 34°09' W 119°12'0 0.0
2018-Jul-09 18:59N 34°09' W 119°12'0 0.2
2018-Jul-09 18:29N 34°09' W 119°12'0 0.0
2018-Jul-09 17:59N 34°09' W 119°12'1 1.1
2018-Jul-09 17:30N 34°09' W 119°13'713.6
2018-Jul-09 17:00N 34°10' W 119°21'4 6.8
2018-Jul-09 16:28N 34°11' W 119°25'0 0.1
2018-Jul-09 15:59N 34°11' W 119°25'0 0.3
2018-Jul-09 15:31N 34°11' W 119°25'0 0.1
2018-Jul-09 15:00N 34°11' W 119°25'1 1.8
2018-Jul-09 14:30N 34°11' W 119°24'815.5
2018-Jul-09 13:59N 34°09' W 119°15'2 4.2
2018-Jul-09 13:29N 34°09' W 119°12'0 0.0
2018-Jul-09 12:59N 34°09' W 119°12'0 0.0
2018-Jul-09 12:30N 34°09' W 119°12'2 4.0
2018-Jul-09 11:59N 34°08' W 119°14'2 4.2
2018-Jul-09 11:29N 34°09' W 119°12'0 0.0
2018-Jul-09 10:59N 34°09' W 119°12'0 0.0
2018-Jul-09 10:30N 34°09' W 119°12'0 0.0
2018-Jul-09 09:59N 34°09' W 119°12'0 0.0
2018-Jul-09 09:30N 34°09' W 119°12'0 0.0
2018-Jul-09 08:57N 34°09' W 119°12'0 0.0
2018-Jul-09 08:30N 34°09' W 119°12'0 0.0
2018-Jul-09 07:58N 34°09' W 119°12'0 0.0
2018-Jul-09 07:30N 34°09' W 119°12'0 0.0
2018-Jul-09 07:00N 34°09' W 119°12'0 0.0
2018-Jul-09 06:30N 34°09' W 119°12'0 0.0
2018-Jul-09 06:00N 34°09' W 119°12'0 0.0
2018-Jul-09 05:30N 34°09' W 119°12'0 0.0
2018-Jul-09 04:59N 34°09' W 119°12'0 0.0
2018-Jul-09 04:29N 34°09' W 119°12'0 0.0
2018-Jul-09 04:00N 34°09' W 119°12'0 0.0
2018-Jul-09 03:30N 34°09' W 119°12'0 0.0
2018-Jul-09 03:00N 34°09' W 119°12'0 0.0
2018-Jul-09 02:30N 34°09' W 119°12'0 0.0
2018-Jul-09 02:00N 34°09' W 119°12'0 0.0
2018-Jul-09 01:30N 34°09' W 119°12'0 0.0
2018-Jul-09 01:00N 34°09' W 119°12'0 0.0
2018-Jul-09 00:30N 34°09' W 119°12'0 0.0
2018-Jul-09 00:00N 34°09' W 119°12'0 0.0
2018-Jul-08 23:30N 34°09' W 119°12'4 8.7
2018-Jul-08 23:00N 34°10' W 119°17'612.4
2018-Jul-08 22:31N 34°11' W 119°25'814.9
2018-Jul-08 22:00N 34°07' W 119°17'4 8.0
2018-Jul-08 21:29N 34°09' W 119°12'0 0.0
2018-Jul-08 21:00N 34°09' W 119°12'0 0.0
2018-Jul-08 20:30N 34°09' W 119°12'0 0.0
2018-Jul-08 20:00N 34°09' W 119°12'0 0.0
2018-Jul-08 19:25N 34°09' W 119°12'0 0.0
2018-Jul-08 18:58N 34°09' W 119°12'0 0.0
2018-Jul-08 18:26N 34°09' W 119°12'0 0.0
2018-Jul-08 17:58N 34°09' W 119°12'0 0.0
2018-Jul-08 17:24N 34°09' W 119°12'0 0.0
2018-Jul-08 17:00N 34°09' W 119°12'0 0.0
2018-Jul-08 16:30N 34°09' W 119°12'0 0.1
2018-Jul-08 15:54N 34°09' W 119°12'613.9
2018-Jul-08 15:30N 34°10' W 119°19'3 6.7
2018-Jul-08 15:00N 34°11' W 119°23'610.9
2018-Jul-08 14:28N 34°10' W 119°16'3 5.6
2018-Jul-08 13:55N 34°09' W 119°12'0 0.0
2018-Jul-08 13:30N 34°09' W 119°12'0 0.0
2018-Jul-08 13:01N 34°09' W 119°12'0 0.1
2018-Jul-08 12:30N 34°09' W 119°12'1 2.1
2018-Jul-08 11:59N 34°08' W 119°13'1 2.2
2018-Jul-08 11:29N 34°09' W 119°12'0 0.0
2018-Jul-08 10:58N 34°09' W 119°12'0 0.0
2018-Jul-08 10:29N 34°09' W 119°12'0 0.0
2018-Jul-08 09:57N 34°09' W 119°12'0 0.0
2018-Jul-08 09:26N 34°09' W 119°12'0 0.0
2018-Jul-08 08:59N 34°09' W 119°12'0 0.0
2018-Jul-08 08:25N 34°09' W 119°12'0 0.0
2018-Jul-08 08:00N 34°09' W 119°12'0 0.0
2018-Jul-08 07:29N 34°09' W 119°12'0 0.0
2018-Jul-08 06:59N 34°09' W 119°12'0 0.0
2018-Jul-08 06:27N 34°09' W 119°12'0 0.0
2018-Jul-08 05:59N 34°09' W 119°12'0 0.0
2018-Jul-08 05:30N 34°09' W 119°12'0 0.0
2018-Jul-08 04:51N 34°09' W 119°12'0 0.0
2018-Jul-08 04:26N 34°09' W 119°12'0 0.0
2018-Jul-08 04:00N 34°09' W 119°12'0 0.0
2018-Jul-08 03:30N 34°09' W 119°12'0 0.0
2018-Jul-08 02:58N 34°09' W 119°12'0 0.0
2018-Jul-08 02:29N 34°09' W 119°12'0 0.0
2018-Jul-08 02:00N 34°09' W 119°12'0 0.0
2018-Jul-08 01:28N 34°09' W 119°12'0 0.0
2018-Jul-08 01:00N 34°09' W 119°12'0 0.0
2018-Jul-08 00:30N 34°09' W 119°12'0 0.0
2018-Jul-07 23:55N 34°09' W 119°12'0 0.0
2018-Jul-07 23:31N 34°09' W 119°12'0 0.0
2018-Jul-07 22:56N 34°09' W 119°12'0 0.0
2018-Jul-07 22:29N 34°09' W 119°12'0 0.0
2018-Jul-07 21:58N 34°09' W 119°12'0 0.0
2018-Jul-07 21:27N 34°09' W 119°12'0 0.0
2018-Jul-07 21:01N 34°09' W 119°12'0 0.0
2018-Jul-07 20:30N 34°09' W 119°12'0 0.0
2018-Jul-07 19:58N 34°09' W 119°12'0 0.0
2018-Jul-07 19:30N 34°09' W 119°12'0 0.0
2018-Jul-07 19:00N 34°09' W 119°12'0 0.0
2018-Jul-07 18:29N 34°09' W 119°12'0 0.0
2018-Jul-07 17:55N 34°09' W 119°12'0 0.0
2018-Jul-07 17:26N 34°09' W 119°12'0 0.0
2018-Jul-07 17:00N 34°09' W 119°12'0 0.0
2018-Jul-07 16:30N 34°09' W 119°12'0 0.0
2018-Jul-07 16:00N 34°09' W 119°12'0 0.1
2018-Jul-07 15:30N 34°09' W 119°12'0 0.1
2018-Jul-07 15:00N 34°09' W 119°12'0 0.0
2018-Jul-07 14:22N 34°09' W 119°12'0 0.0
2018-Jul-07 14:00N 34°09' W 119°12'0 0.0
2018-Jul-07 13:30N 34°09' W 119°12'  
Track history (hours):
 
Tides and Currents Weather Stations Pressure Air Temp Water Temp Dewpoint Dewpoint Depression Visibility Wind Speed Wind Dir Waves Ship Positions

Capt. T Le

Owner: SO CAL SHIP SERVICES, INC, TERMINAL ISLAND, CA. More information available from US FCC via Universal Licensing System and Coast Guard Vessel Documentation Center.

Last reported at 2018-Jul-17 12:58 UTC. Time now 2018-Jul-17 13:22 UTC.
Position N 34°09' W 119°12'.

Length 30 m; draft 2 m.

Type: Ship (hazmat cat B). MMSI: 367104030.

Date/timePositionNaut miles runAvg speedWind from/ knotsBaromVisibWave heightAir tempDewpointWater temp
2018-Jul-17 12:58N 34°09' W 119°12'0 0.0
2018-Jul-17 12:30N 34°09' W 119°12'0 0.0
2018-Jul-17 12:00N 34°09' W 119°12'0 0.0
2018-Jul-17 11:30N 34°09' W 119°12'0 0.0
2018-Jul-17 11:00N 34°09' W 119°12'0 0.0
2018-Jul-17 10:30N 34°09' W 119°12'0 0.0
2018-Jul-17 10:00N 34°09' W 119°12'0 0.0
2018-Jul-17 09:30N 34°09' W 119°12'0 0.0
2018-Jul-17 09:00N 34°09' W 119°12'0 0.0
2018-Jul-17 08:30N 34°09' W 119°12'0 0.0
2018-Jul-17 08:00N 34°09' W 119°12'0 0.0
2018-Jul-17 07:30N 34°09' W 119°12'0 0.0
2018-Jul-17 06:58N 34°09' W 119°12'0 0.0
2018-Jul-17 06:30N 34°09' W 119°12'2 3.9
2018-Jul-17 06:00N 34°09' W 119°15'815.6
2018-Jul-17 05:30N 34°11' W 119°24'4 7.6
2018-Jul-17 05:00N 34°10' W 119°19'611.6
2018-Jul-17 04:30N 34°09' W 119°12'0 0.0
2018-Jul-17 04:00N 34°09' W 119°12'0 0.0
2018-Jul-17 03:30N 34°09' W 119°12'0 0.0
2018-Jul-17 03:00N 34°09' W 119°12'0 0.0
2018-Jul-17 02:30N 34°09' W 119°12'0 0.0
2018-Jul-17 02:00N 34°09' W 119°12'0 0.0
2018-Jul-17 01:30N 34°09' W 119°12'0 0.0
2018-Jul-17 00:59N 34°09' W 119°12'0 0.0
2018-Jul-17 00:29N 34°09' W 119°12'0 0.0
2018-Jul-16 23:30N 34°09' W 119°12'5 9.5
2018-Jul-16 23:00N 34°08' W 119°18'714.0
2018-Jul-16 22:30N 34°11' W 119°25'611.6
2018-Jul-16 22:00N 34°10' W 119°18'510.7
2018-Jul-16 21:31N 34°09' W 119°12'0 0.0
2018-Jul-16 21:00N 34°09' W 119°12'0 0.0
2018-Jul-16 20:30N 34°09' W 119°12'0 0.0
2018-Jul-16 19:58N 34°09' W 119°12'0 0.8
2018-Jul-16 19:31N 34°09' W 119°13'714.3
2018-Jul-16 18:59N 34°10' W 119°21'1 1.9
2018-Jul-16 18:30N 34°10' W 119°22'510.7
2018-Jul-16 18:00N 34°07' W 119°17'4 8.3
2018-Jul-16 17:30N 34°09' W 119°12'1 2.1
2018-Jul-16 17:00N 34°08' W 119°13'3 6.3
2018-Jul-16 16:30N 34°07' W 119°17'714.0
2018-Jul-16 16:01N 34°10' W 119°24'5 9.8
2018-Jul-16 15:30N 34°09' W 119°18'5 9.5
2018-Jul-16 15:00N 34°11' W 119°24'2 4.7
2018-Jul-16 14:30N 34°09' W 119°22'713.3
2018-Jul-16 14:00N 34°08' W 119°13'1 2.5
2018-Jul-16 13:29N 34°09' W 119°12'0 0.0
2018-Jul-16 13:00N 34°09' W 119°12'0 0.0
2018-Jul-16 12:28N 34°09' W 119°12'0 0.0
2018-Jul-16 12:00N 34°09' W 119°12'0 0.0
2018-Jul-16 11:30N 34°09' W 119°12'0 0.0
2018-Jul-16 11:00N 34°09' W 119°12'0 0.0
2018-Jul-16 10:31N 34°09' W 119°12'0 0.0
2018-Jul-16 10:00N 34°09' W 119°12'0 0.0
2018-Jul-16 09:30N 34°09' W 119°12'0 0.0
2018-Jul-16 09:00N 34°09' W 119°12'0 0.0
2018-Jul-16 08:30N 34°09' W 119°12'0 0.0
2018-Jul-16 08:00N 34°09' W 119°12'0 0.0
2018-Jul-16 07:30N 34°09' W 119°12'0 0.0
2018-Jul-16 07:00N 34°09' W 119°12'0 0.0
2018-Jul-16 06:30N 34°09' W 119°12'0 0.0
2018-Jul-16 05:56N 34°09' W 119°12'0 0.0
2018-Jul-16 05:29N 34°09' W 119°12'0 0.0
2018-Jul-16 05:00N 34°09' W 119°12'0 0.0
2018-Jul-16 04:28N 34°09' W 119°12'0 0.0
2018-Jul-16 03:59N 34°09' W 119°12'0 0.0
2018-Jul-16 03:29N 34°09' W 119°12'0 0.0
2018-Jul-16 02:54N 34°09' W 119°12'0 0.0
2018-Jul-16 02:30N 34°09' W 119°12'0 0.0
2018-Jul-16 02:00N 34°09' W 119°12'0 0.0
2018-Jul-16 01:30N 34°09' W 119°12'0 0.0
2018-Jul-16 00:58N 34°09' W 119°12'0 0.0
2018-Jul-16 00:30N 34°09' W 119°12'0 0.9
2018-Jul-15 23:59N 34°09' W 119°13'611.2
2018-Jul-15 23:29N 34°10' W 119°19'3 6.5
2018-Jul-15 23:00N 34°10' W 119°23'612.1
2018-Jul-15 22:29N 34°07' W 119°17'4 8.3
2018-Jul-15 22:00N 34°09' W 119°12'0 0.5
2018-Jul-15 21:30N 34°09' W 119°12'0 0.0
2018-Jul-15 20:58N 34°09' W 119°12'0 0.0
2018-Jul-15 20:30N 34°09' W 119°12'0 0.1
2018-Jul-15 19:44N 34°09' W 119°12'0 0.2
2018-Jul-15 19:30N 34°09' W 119°12'0 0.0
2018-Jul-15 19:00N 34°09' W 119°12'0 0.0
2018-Jul-15 18:28N 34°09' W 119°12'0 0.0
2018-Jul-15 18:00N 34°09' W 119°12'0 0.0
2018-Jul-15 17:30N 34°09' W 119°12'0 0.0
2018-Jul-15 17:00N 34°09' W 119°12'0 0.0
2018-Jul-15 16:30N 34°09' W 119°12'0 0.6
2018-Jul-15 16:01N 34°09' W 119°12'4 7.7
2018-Jul-15 15:30N 34°07' W 119°17'5 9.4
2018-Jul-15 15:00N 34°12' W 119°17'713.7
2018-Jul-15 14:30N 34°11' W 119°25'714.4
2018-Jul-15 14:00N 34°09' W 119°17'4 7.9
2018-Jul-15 13:30N 34°09' W 119°12'0 0.0
2018-Jul-15 13:00N 34°09' W 119°12'0 0.0
2018-Jul-15 12:30N 34°09' W 119°12'0 0.0
2018-Jul-15 11:58N 34°09' W 119°12'0 0.0
2018-Jul-15 11:30N 34°09' W 119°12'0 0.0
2018-Jul-15 10:59N 34°09' W 119°12'0 0.0
2018-Jul-15 10:24N 34°09' W 119°12'0 0.0
2018-Jul-15 10:00N 34°09' W 119°12'0 0.0
2018-Jul-15 09:28N 34°09' W 119°12'0 0.0
2018-Jul-15 09:00N 34°09' W 119°12'0 0.0
2018-Jul-15 08:30N 34°09' W 119°12'0 0.0
2018-Jul-15 08:00N 34°09' W 119°12'0 0.0
2018-Jul-15 07:30N 34°09' W 119°12'0 0.0
2018-Jul-15 07:00N 34°09' W 119°12'0 0.0
2018-Jul-15 06:30N 34°09' W 119°12'0 0.0
2018-Jul-15 06:00N 34°09' W 119°12'0 0.0
2018-Jul-15 05:30N 34°09' W 119°12'0 0.0
2018-Jul-15 04:58N 34°09' W 119°12'0 0.0
2018-Jul-15 04:28N 34°09' W 119°12'0 0.0
2018-Jul-15 04:00N 34°09' W 119°12'0 0.0
2018-Jul-15 03:28N 34°09' W 119°12'0 0.0
2018-Jul-15 02:59N 34°09' W 119°12'0 0.0
2018-Jul-15 02:30N 34°09' W 119°12'0 0.0
2018-Jul-15 01:59N 34°09' W 119°12'0 0.0
2018-Jul-15 01:30N 34°09' W 119°12'0 0.0
2018-Jul-15 01:00N 34°09' W 119°12'0 0.0
2018-Jul-15 00:29N 34°09' W 119°12'0 0.0
2018-Jul-14 23:59N 34°09' W 119°12'0 0.0
2018-Jul-14 23:30N 34°09' W 119°12'0 0.0
2018-Jul-14 23:00N 34°09' W 119°12'0 0.0
2018-Jul-14 22:29N 34°09' W 119°12'0 0.0
2018-Jul-14 22:00N 34°09' W 119°12'0 0.0
2018-Jul-14 21:30N 34°09' W 119°12'0 0.0
2018-Jul-14 21:00N 34°09' W 119°12'0 0.0
2018-Jul-14 20:30N 34°09' W 119°12'0 0.0
2018-Jul-14 20:00N 34°09' W 119°12'0 0.0
2018-Jul-14 19:29N 34°09' W 119°12'0 0.0
2018-Jul-14 18:59N 34°09' W 119°12'0 0.0
2018-Jul-14 18:29N 34°09' W 119°12'0 0.0
2018-Jul-14 17:59N 34°09' W 119°12'0 0.0
2018-Jul-14 17:30N 34°09' W 119°12'0 0.4
2018-Jul-14 16:59N 34°09' W 119°12'0 0.3
2018-Jul-14 16:24N 34°09' W 119°12'0 0.0
2018-Jul-14 16:00N 34°09' W 119°12'0 0.0
2018-Jul-14 15:27N 34°09' W 119°12'2 4.4
2018-Jul-14 15:00N 34°09' W 119°15'3 3.3
2018-Jul-14 14:00N 34°09' W 119°18'510.7
2018-Jul-14 13:30N 34°09' W 119°12'0 0.0
2018-Jul-14 13:00N 34°09' W 119°12'0 0.0
2018-Jul-14 12:30N 34°09' W 119°12'0 0.0
2018-Jul-14 12:00N 34°09' W 119°12'0 0.0
2018-Jul-14 11:29N 34°09' W 119°12'0 0.0
2018-Jul-14 10:58N 34°09' W 119°12'0 0.0
2018-Jul-14 10:28N 34°09' W 119°12'0 0.0
2018-Jul-14 10:00N 34°09' W 119°12'0 0.0
2018-Jul-14 09:26N 34°09' W 119°12'0 0.0
2018-Jul-14 08:59N 34°09' W 119°12'0 0.0
2018-Jul-14 08:30N 34°09' W 119°12'0 0.0
2018-Jul-14 08:00N 34°09' W 119°12'0 0.0
2018-Jul-14 07:30N 34°09' W 119°12'0 0.0
2018-Jul-14 07:00N 34°09' W 119°12'0 0.0
2018-Jul-14 06:30N 34°09' W 119°12'0 0.0
2018-Jul-14 06:00N 34°09' W 119°12'0 0.0
2018-Jul-14 05:30N 34°09' W 119°12'0 0.0
2018-Jul-14 05:00N 34°09' W 119°12'0 0.0
2018-Jul-14 04:30N 34°09' W 119°12'0 0.0
2018-Jul-14 03:58N 34°09' W 119°12'0 0.0
2018-Jul-14 03:29N 34°09' W 119°12'0 0.0
2018-Jul-14 03:00N 34°09' W 119°12'0 0.0
2018-Jul-14 02:27N 34°09' W 119°12'0 0.0
2018-Jul-14 02:00N 34°09' W 119°12'0 0.0
2018-Jul-14 01:30N 34°09' W 119°12'0 0.0
2018-Jul-14 01:00N 34°09' W 119°12'0 0.0
2018-Jul-14 00:28N 34°09' W 119°12'0 0.0
2018-Jul-14 00:00N 34°09' W 119°12'0 0.0
2018-Jul-13 23:30N 34°09' W 119°12'5 9.0
2018-Jul-13 23:00N 34°07' W 119°17'715.3
2018-Jul-13 22:31N 34°11' W 119°25'713.8
2018-Jul-13 22:00N 34°09' W 119°17'4 7.4
2018-Jul-13 21:28N 34°09' W 119°12'0 0.0
2018-Jul-13 20:58N 34°09' W 119°12'0 0.0
2018-Jul-13 20:29N 34°09' W 119°12'0 0.0
2018-Jul-13 20:00N 34°09' W 119°12'0 0.0
2018-Jul-13 19:30N 34°09' W 119°12'0 0.0
2018-Jul-13 18:59N 34°09' W 119°12'4 8.2
2018-Jul-13 18:30N 34°07' W 119°16'4 7.8
2018-Jul-13 18:00N 34°09' W 119°12'0 0.1
2018-Jul-13 17:30N 34°09' W 119°12'0 0.0
2018-Jul-13 17:00N 34°09' W 119°12'0 0.0
2018-Jul-13 16:31N 34°09' W 119°12'1 1.7
2018-Jul-13 16:00N 34°08' W 119°13'612.0
2018-Jul-13 15:29N 34°09' W 119°21'4 8.7
2018-Jul-13 15:00N 34°11' W 119°25'9 8.9
2018-Jul-13 14:00N 34°07' W 119°15'3 5.8
2018-Jul-13 13:30N 34°09' W 119°12'0 0.0
2018-Jul-13 13:00N 34°09' W 119°12'0 0.0
2018-Jul-13 12:30N 34°09' W 119°12'0 0.0
2018-Jul-13 12:00N 34°09' W 119°12'0 0.0
2018-Jul-13 11:30N 34°09' W 119°12'0 0.0
2018-Jul-13 11:00N 34°09' W 119°12'0 0.0
2018-Jul-13 10:30N 34°09' W 119°12'0 0.0
2018-Jul-13 10:00N 34°09' W 119°12'0 0.0
2018-Jul-13 09:29N 34°09' W 119°12'0 0.0
2018-Jul-13 08:59N 34°09' W 119°12'0 0.0
2018-Jul-13 08:30N 34°09' W 119°12'0 0.0
2018-Jul-13 07:56N 34°09' W 119°12'0 0.0
2018-Jul-13 07:30N 34°09' W 119°12'0 0.0
2018-Jul-13 06:59N 34°09' W 119°12'0 0.0
2018-Jul-13 06:30N 34°09' W 119°12'0 0.0
2018-Jul-13 05:58N 34°09' W 119°12'0 0.0
2018-Jul-13 05:28N 34°09' W 119°12'0 0.0
2018-Jul-13 05:00N 34°09' W 119°12'0 0.0
2018-Jul-13 04:30N 34°09' W 119°12'0 0.0
2018-Jul-13 04:00N 34°09' W 119°12'0 0.0
2018-Jul-13 03:30N 34°09' W 119°12'0 0.0
2018-Jul-13 03:00N 34°09' W 119°12'1 1.5
2018-Jul-13 02:30N 34°09' W 119°13'612.1
2018-Jul-13 02:00N 34°10' W 119°20'1 2.9
2018-Jul-13 01:30N 34°10' W 119°22'815.5
2018-Jul-13 01:00N 34°09' W 119°13'0 1.0
2018-Jul-13 00:30N 34°09' W 119°12'2 4.9
2018-Jul-13 00:00N 34°08' W 119°15'2 4.9
2018-Jul-12 23:30N 34°09' W 119°12'611.0
2018-Jul-12 23:00N 34°08' W 119°19'611.9
2018-Jul-12 22:30N 34°11' W 119°25'611.6
2018-Jul-12 22:01N 34°10' W 119°18'5 9.9
2018-Jul-12 21:30N 34°09' W 119°12'4 7.3
2018-Jul-12 21:00N 34°07' W 119°16'4 7.8
2018-Jul-12 20:31N 34°09' W 119°12'0 0.0
2018-Jul-12 20:01N 34°09' W 119°12'0 0.0
2018-Jul-12 19:30N 34°09' W 119°12'0 0.0
2018-Jul-12 19:00N 34°09' W 119°12'1 2.0
2018-Jul-12 18:29N 34°08' W 119°13'511.0
2018-Jul-12 18:00N 34°10' W 119°19'510.1
2018-Jul-12 17:30N 34°11' W 119°25'0 0.7
2018-Jul-12 17:00N 34°11' W 119°25'715.0
2018-Jul-12 16:30N 34°09' W 119°16'3 6.2
2018-Jul-12 15:59N 34°09' W 119°12'4 7.8
2018-Jul-12 15:29N 34°09' W 119°17'713.8
2018-Jul-12 15:00N 34°11' W 119°25'2 3.2
2018-Jul-12 14:30N 34°10' W 119°23'613.2
2018-Jul-12 14:00N 34°07' W 119°16'4 7.1
2018-Jul-12 13:30N 34°09' W 119°12'0 0.0
2018-Jul-12 13:00N 34°09' W 119°12'0 0.0
2018-Jul-12 12:30N 34°09' W 119°12'3 5.8
2018-Jul-12 12:00N 34°08' W 119°15'3 5.5
2018-Jul-12 11:30N 34°09' W 119°12'0 0.0
2018-Jul-12 10:59N 34°09' W 119°12'0 0.0
2018-Jul-12 10:30N 34°09' W 119°12'0 0.0
2018-Jul-12 10:00N 34°09' W 119°12'0 0.0
2018-Jul-12 09:27N 34°09' W 119°12'0 0.0
2018-Jul-12 09:00N 34°09' W 119°12'0 0.0
2018-Jul-12 08:30N 34°09' W 119°12'0 0.0
2018-Jul-12 08:00N 34°09' W 119°12'0 0.0
2018-Jul-12 07:30N 34°09' W 119°12'0 0.0
2018-Jul-12 06:57N 34°09' W 119°12'0 0.0
2018-Jul-12 06:30N 34°09' W 119°12'0 0.0
2018-Jul-12 05:59N 34°09' W 119°12'0 0.0
2018-Jul-12 05:30N 34°09' W 119°12'0 0.0
2018-Jul-12 05:00N 34°09' W 119°12'0 0.0
2018-Jul-12 04:28N 34°09' W 119°12'0 0.0
2018-Jul-12 04:01N 34°09' W 119°12'0 0.0
2018-Jul-12 03:31N 34°09' W 119°12'0 0.0
2018-Jul-12 02:59N 34°09' W 119°12'1 2.9
2018-Jul-12 02:29N 34°09' W 119°14'815.9
2018-Jul-12 02:00N 34°10' W 119°23'1 2.7
2018-Jul-12 01:30N 34°10' W 119°21'814.8
2018-Jul-12 01:00N 34°09' W 119°12'0 0.1
2018-Jul-12 00:30N 34°09' W 119°12'3 6.4
2018-Jul-12 00:00N 34°07' W 119°15'3 6.4
2018-Jul-11 23:30N 34°09' W 119°12'5 9.6
2018-Jul-11 23:00N 34°08' W 119°18'713.8
2018-Jul-11 22:30N 34°11' W 119°25'0 0.2
2018-Jul-11 22:00N 34°11' W 119°25'0 0.0
2018-Jul-11 21:30N 34°11' W 119°25'0 0.0
2018-Jul-11 21:00N 34°11' W 119°25'2 3.3
2018-Jul-11 20:30N 34°11' W 119°23'815.2
2018-Jul-11 20:00N 34°09' W 119°14'2 3.9
2018-Jul-11 19:30N 34°09' W 119°17'714.5
2018-Jul-11 19:00N 34°11' W 119°25'713.6
2018-Jul-11 18:29N 34°07' W 119°18'510.5
2018-Jul-11 18:00N 34°09' W 119°12'0 0.3
2018-Jul-11 17:30N 34°09' W 119°12'611.3
2018-Jul-11 17:00N 34°08' W 119°19'610.8
2018-Jul-11 16:28N 34°11' W 119°25'0 0.0
2018-Jul-11 16:00N 34°11' W 119°25'0 0.0
2018-Jul-11 15:30N 34°11' W 119°25'0 0.3
2018-Jul-11 15:00N 34°11' W 119°25'1 2.8
2018-Jul-11 14:31N 34°10' W 119°24'714.1
2018-Jul-11 14:00N 34°07' W 119°16'4 6.7
2018-Jul-11 13:29N 34°09' W 119°12'0 0.0
2018-Jul-11 13:01N 34°09' W 119°12'0 0.0
2018-Jul-11 12:29N 34°09' W 119°12'4 8.6
2018-Jul-11 12:00N 34°07' W 119°17'4 8.6
2018-Jul-11 11:30N 34°09' W 119°12'0 0.0
2018-Jul-11 11:00N 34°09' W 119°12'0 0.0
2018-Jul-11 10:27N 34°09' W 119°12'0 0.0
2018-Jul-11 10:00N 34°09' W 119°12'0 0.0
2018-Jul-11 09:29N 34°09' W 119°12'0 0.0
2018-Jul-11 09:00N 34°09' W 119°12'0 0.0
2018-Jul-11 08:30N 34°09' W 119°12'0 0.0
2018-Jul-11 07:58N 34°09' W 119°12'0 0.0
2018-Jul-11 07:30N 34°09' W 119°12'0 0.0
2018-Jul-11 07:00N 34°09' W 119°12'0 0.0
2018-Jul-11 06:27N 34°09' W 119°12'0 0.0
2018-Jul-11 06:00N 34°09' W 119°12'0 0.0
2018-Jul-11 05:30N 34°09' W 119°12'0 0.0
2018-Jul-11 04:59N 34°09' W 119°12'0 0.0
2018-Jul-11 04:30N 34°09' W 119°12'0 0.0
2018-Jul-11 03:58N 34°09' W 119°12'0 0.0
2018-Jul-11 03:26N 34°09' W 119°12'0 0.0
2018-Jul-11 03:00N 34°09' W 119°12'4 8.1
2018-Jul-11 02:30N 34°07' W 119°17'1 1.2
2018-Jul-11 02:00N 34°08' W 119°17'0 0.1
2018-Jul-11 01:30N 34°08' W 119°17'4 8.0
2018-Jul-11 01:00N 34°09' W 119°12'0 0.6
2018-Jul-11 00:28N 34°09' W 119°12'4 8.2
2018-Jul-11 00:00N 34°07' W 119°16'4 7.3
2018-Jul-10 23:30N 34°09' W 119°12'510.4
2018-Jul-10 23:00N 34°08' W 119°18'612.0
2018-Jul-10 22:29N 34°11' W 119°25'0 0.2
2018-Jul-10 21:55N 34°11' W 119°25'0 0.0
2018-Jul-10 21:29N 34°11' W 119°25'0 0.0
2018-Jul-10 21:00N 34°11' W 119°25'0 0.0
2018-Jul-10 20:30N 34°11' W 119°25'0 0.0
2018-Jul-10 20:00N 34°11' W 119°25'0 0.0
2018-Jul-10 19:30N 34°11' W 119°25'1 1.1
2018-Jul-10 19:00N 34°11' W 119°25'815.5
2018-Jul-10 18:30N 34°09' W 119°15'1 2.9
2018-Jul-10 18:00N 34°08' W 119°15'2 4.7
2018-Jul-10 17:30N 34°09' W 119°13'1 1.0
2018-Jul-10 17:00N 34°09' W 119°12'0 0.6
2018-Jul-10 16:30N 34°09' W 119°12'4 9.0
2018-Jul-10 16:00N 34°08' W 119°18'3 5.4
2018-Jul-10 15:30N 34°09' W 119°21'4 8.0
2018-Jul-10 15:01N 34°11' W 119°25'1 2.1
2018-Jul-10 14:31N 34°11' W 119°24'714.0
2018-Jul-10 14:00N 34°07' W 119°17'4 8.2
2018-Jul-10 13:31N 34°09' W 119°12'0 0.0
2018-Jul-10 13:00N 34°09' W 119°12'0 0.0
2018-Jul-10 12:30N 34°09' W 119°12'4 7.2
2018-Jul-10 12:00N 34°08' W 119°16'4 7.1
2018-Jul-10 11:30N 34°09' W 119°12'0 0.0
2018-Jul-10 11:00N 34°09' W 119°12'0 0.0
2018-Jul-10 10:30N 34°09' W 119°12'0 0.0
2018-Jul-10 10:00N 34°09' W 119°12'0 0.0
2018-Jul-10 09:30N 34°09' W 119°12'0 0.0
2018-Jul-10 09:00N 34°09' W 119°12'0 0.0
2018-Jul-10 08:30N 34°09' W 119°12'0 0.0
2018-Jul-10 07:59N 34°09' W 119°12'0 0.0
2018-Jul-10 07:29N 34°09' W 119°12'0 0.0
2018-Jul-10 07:00N 34°09' W 119°12'0 0.0
2018-Jul-10 06:30N 34°09' W 119°12'0 0.0
2018-Jul-10 06:00N 34°09' W 119°12'0 0.0
2018-Jul-10 05:30N 34°09' W 119°12'0 0.0
2018-Jul-10 05:01N 34°09' W 119°12'0 0.0
2018-Jul-10 04:30N 34°09' W 119°12'0 0.0
2018-Jul-10 03:58N 34°09' W 119°12'0 0.0
2018-Jul-10 03:30N 34°09' W 119°12'2 3.9
2018-Jul-10 03:00N 34°09' W 119°14'714.0
2018-Jul-10 02:30N 34°10' W 119°23'1 2.8
2018-Jul-10 02:01N 34°11' W 119°24'815.2
2018-Jul-10 01:30N 34°08' W 119°15'3 5.0
2018-Jul-10 00:58N 34°09' W 119°12'0 0.1
2018-Jul-10 00:30N 34°09' W 119°12'0 0.0
2018-Jul-10 00:00N 34°09' W 119°12'0 0.0
2018-Jul-09 23:30N 34°09' W 119°12'2 4.9
2018-Jul-09 23:01N 34°09' W 119°15'815.8
2018-Jul-09 22:30N 34°11' W 119°24'510.6
2018-Jul-09 22:00N 34°08' W 119°19'510.4
2018-Jul-09 21:30N 34°09' W 119°13'0 0.8
2018-Jul-09 21:00N 34°09' W 119°12'0 0.0
2018-Jul-09 20:30N 34°09' W 119°12'0 0.0
2018-Jul-09 19:58N 34°09' W 119°12'0 0.0
2018-Jul-09 19:30N 34°09' W 119°12'0 0.0
2018-Jul-09 18:59N 34°09' W 119°12'0 0.2
2018-Jul-09 18:29N 34°09' W 119°12'0 0.0
2018-Jul-09 17:59N 34°09' W 119°12'1 1.1
2018-Jul-09 17:30N 34°09' W 119°13'713.6
2018-Jul-09 17:00N 34°10' W 119°21'4 6.8
2018-Jul-09 16:28N 34°11' W 119°25'0 0.1
2018-Jul-09 15:59N 34°11' W 119°25'0 0.3
2018-Jul-09 15:31N 34°11' W 119°25'0 0.1
2018-Jul-09 15:00N 34°11' W 119°25'1 1.8
2018-Jul-09 14:30N 34°11' W 119°24'815.5
2018-Jul-09 13:59N 34°09' W 119°15'2 4.2
2018-Jul-09 13:29N 34°09' W 119°12'0 0.0
2018-Jul-09 12:59N 34°09' W 119°12'0 0.0
2018-Jul-09 12:30N 34°09' W 119°12'2 4.0
2018-Jul-09 11:59N 34°08' W 119°14'2 4.2
2018-Jul-09 11:29N 34°09' W 119°12'0 0.0
2018-Jul-09 10:59N 34°09' W 119°12'0 0.0
2018-Jul-09 10:30N 34°09' W 119°12'0 0.0
2018-Jul-09 09:59N 34°09' W 119°12'0 0.0
2018-Jul-09 09:30N 34°09' W 119°12'0 0.0
2018-Jul-09 08:57N 34°09' W 119°12'0 0.0
2018-Jul-09 08:30N 34°09' W 119°12'0 0.0
2018-Jul-09 07:58N 34°09' W 119°12'0 0.0
2018-Jul-09 07:30N 34°09' W 119°12'0 0.0
2018-Jul-09 07:00N 34°09' W 119°12'0 0.0
2018-Jul-09 06:30N 34°09' W 119°12'0 0.0
2018-Jul-09 06:00N 34°09' W 119°12'0 0.0
2018-Jul-09 05:30N 34°09' W 119°12'0 0.0
2018-Jul-09 04:59N 34°09' W 119°12'0 0.0
2018-Jul-09 04:29N 34°09' W 119°12'0 0.0
2018-Jul-09 04:00N 34°09' W 119°12'0 0.0
2018-Jul-09 03:30N 34°09' W 119°12'0 0.0
2018-Jul-09 03:00N 34°09' W 119°12'0 0.0
2018-Jul-09 02:30N 34°09' W 119°12'0 0.0
2018-Jul-09 02:00N 34°09' W 119°12'0 0.0
2018-Jul-09 01:30N 34°09' W 119°12'0 0.0
2018-Jul-09 01:00N 34°09' W 119°12'0 0.0
2018-Jul-09 00:30N 34°09' W 119°12'0 0.0
2018-Jul-09 00:00N 34°09' W 119°12'0 0.0
2018-Jul-08 23:30N 34°09' W 119°12'4 8.7
2018-Jul-08 23:00N 34°10' W 119°17'612.4
2018-Jul-08 22:31N 34°11' W 119°25'814.9
2018-Jul-08 22:00N 34°07' W 119°17'4 8.0
2018-Jul-08 21:29N 34°09' W 119°12'0 0.0
2018-Jul-08 21:00N 34°09' W 119°12'0 0.0
2018-Jul-08 20:30N 34°09' W 119°12'0 0.0
2018-Jul-08 20:00N 34°09' W 119°12'0 0.0
2018-Jul-08 19:25N 34°09' W 119°12'0 0.0
2018-Jul-08 18:58N 34°09' W 119°12'0 0.0
2018-Jul-08 18:26N 34°09' W 119°12'0 0.0
2018-Jul-08 17:58N 34°09' W 119°12'0 0.0
2018-Jul-08 17:24N 34°09' W 119°12'0 0.0
2018-Jul-08 17:00N 34°09' W 119°12'0 0.0
2018-Jul-08 16:30N 34°09' W 119°12'0 0.1
2018-Jul-08 15:54N 34°09' W 119°12'613.9
2018-Jul-08 15:30N 34°10' W 119°19'3 6.7
2018-Jul-08 15:00N 34°11' W 119°23'610.9
2018-Jul-08 14:28N 34°10' W 119°16'3 5.6
2018-Jul-08 13:55N 34°09' W 119°12'0 0.0
2018-Jul-08 13:30N 34°09' W 119°12'0 0.0
2018-Jul-08 13:01N 34°09' W 119°12'0 0.1
2018-Jul-08 12:30N 34°09' W 119°12'1 2.1
2018-Jul-08 11:59N 34°08' W 119°13'1 2.2
2018-Jul-08 11:29N 34°09' W 119°12'0 0.0
2018-Jul-08 10:58N 34°09' W 119°12'0 0.0
2018-Jul-08 10:29N 34°09' W 119°12'0 0.0
2018-Jul-08 09:57N 34°09' W 119°12'0 0.0
2018-Jul-08 09:26N 34°09' W 119°12'0 0.0
2018-Jul-08 08:59N 34°09' W 119°12'0 0.0
2018-Jul-08 08:25N 34°09' W 119°12'0 0.0
2018-Jul-08 08:00N 34°09' W 119°12'0 0.0
2018-Jul-08 07:29N 34°09' W 119°12'0 0.0
2018-Jul-08 06:59N 34°09' W 119°12'0 0.0
2018-Jul-08 06:27N 34°09' W 119°12'0 0.0
2018-Jul-08 05:59N 34°09' W 119°12'0 0.0
2018-Jul-08 05:30N 34°09' W 119°12'0 0.0
2018-Jul-08 04:51N 34°09' W 119°12'0 0.0
2018-Jul-08 04:26N 34°09' W 119°12'0 0.0
2018-Jul-08 04:00N 34°09' W 119°12'0 0.0
2018-Jul-08 03:30N 34°09' W 119°12'0 0.0
2018-Jul-08 02:58N 34°09' W 119°12'0 0.0
2018-Jul-08 02:29N 34°09' W 119°12'0 0.0
2018-Jul-08 02:00N 34°09' W 119°12'0 0.0
2018-Jul-08 01:28N 34°09' W 119°12'0 0.0
2018-Jul-08 01:00N 34°09' W 119°12'0 0.0
2018-Jul-08 00:30N 34°09' W 119°12'0 0.0
2018-Jul-07 23:55N 34°09' W 119°12'0 0.0
2018-Jul-07 23:31N 34°09' W 119°12'0 0.0
2018-Jul-07 22:56N 34°09' W 119°12'0 0.0
2018-Jul-07 22:29N 34°09' W 119°12'0 0.0
2018-Jul-07 21:58N 34°09' W 119°12'0 0.0
2018-Jul-07 21:27N 34°09' W 119°12'0 0.0
2018-Jul-07 21:01N 34°09' W 119°12'0 0.0
2018-Jul-07 20:30N 34°09' W 119°12'0 0.0
2018-Jul-07 19:58N 34°09' W 119°12'0 0.0
2018-Jul-07 19:30N 34°09' W 119°12'0 0.0
2018-Jul-07 19:00N 34°09' W 119°12'0 0.0
2018-Jul-07 18:29N 34°09' W 119°12'0 0.0
2018-Jul-07 17:55N 34°09' W 119°12'0 0.0
2018-Jul-07 17:26N 34°09' W 119°12'0 0.0
2018-Jul-07 17:00N 34°09' W 119°12'0 0.0
2018-Jul-07 16:30N 34°09' W 119°12'0 0.0
2018-Jul-07 16:00N 34°09' W 119°12'0 0.1
2018-Jul-07 15:30N 34°09' W 119°12'0 0.1
2018-Jul-07 15:00N 34°09' W 119°12'0 0.0
2018-Jul-07 14:22N 34°09' W 119°12'0 0.0
2018-Jul-07 14:00N 34°09' W 119°12'0 0.0
2018-Jul-07 13:30N 34°09' W 119°12'  

Dump ship's entire track history